NJE221 EDDL-LEGE
Flight info
| Callsign | NJE221 |
|---|---|
| Flight time | N/A |
| Altitude | 40000 |
| Route | MODRU Z717 MAS UM617 CIV N872 MEDIL DCT KOVIN DCT DUCRA UM728 RESMI UN857 DISAK DCT DIRMO DCT VALKU DCT ATSUP DCT MINSO DCT DEGOL DCT PPG A27 KANIG |
| Aircraft | C750/M-SBDE3FGHRWXY/S |
Departure
| Time | N/A |
|---|---|
| Airport | Düsseldorf Airport (EDDL) |
Arrival
| Time | 2026-04-29 18:49 |
|---|---|
| Airport | Girona-Costa Brava Airport (LEGE) |
| Time | Latitude | Longitude | Altitude | Speed | Heading |
|---|---|---|---|---|---|
| 2026-04-29 17:40 | 50.63307 | 4.13356 | 40223 ft | 520 kts | 254° |
| 2026-04-29 17:40 | 50.61179 | 4.02464 | 40205 ft | 523 kts | 254° |
| 2026-04-29 17:41 | 50.58669 | 3.91756 | 40201 ft | 526 kts | 244° |
| 2026-04-29 17:41 | 50.54426 | 3.82446 | 40196 ft | 527 kts | 227° |
| 2026-04-29 17:42 | 50.48649 | 3.75441 | 40180 ft | 525 kts | 210° |
| 2026-04-29 17:42 | 50.41846 | 3.71184 | 40190 ft | 528 kts | 196° |
| 2026-04-29 17:43 | 50.34740 | 3.67994 | 40186 ft | 530 kts | 197° |
| 2026-04-29 17:43 | 50.27940 | 3.63560 | 40177 ft | 533 kts | 206° |
| 2026-04-29 17:44 | 50.21306 | 3.58579 | 40165 ft | 529 kts | 203° |
| 2026-04-29 17:44 | 50.14469 | 3.54331 | 40166 ft | 527 kts | 203° |
| 2026-04-29 17:45 | 50.07777 | 3.49618 | 40164 ft | 527 kts | 204° |
| 2026-04-29 17:45 | 50.01005 | 3.45240 | 40163 ft | 528 kts | 203° |
| 2026-04-29 17:46 | 49.94303 | 3.40694 | 40158 ft | 527 kts | 204° |
| 2026-04-29 17:46 | 49.87558 | 3.36261 | 40150 ft | 525 kts | 204° |
| 2026-04-29 17:47 | 49.80815 | 3.31778 | 40144 ft | 526 kts | 204° |
| 2026-04-29 17:47 | 49.74059 | 3.27328 | 40139 ft | 528 kts | 204° |
| 2026-04-29 17:48 | 49.67316 | 3.22893 | 40136 ft | 529 kts | 205° |
| 2026-04-29 17:48 | 49.60566 | 3.18463 | 40125 ft | 527 kts | 204° |
| 2026-04-29 17:49 | 49.53836 | 3.14068 | 40123 ft | 527 kts | 205° |
| 2026-04-29 17:49 | 49.47188 | 3.09301 | 40108 ft | 520 kts | 213° |
| 2026-04-29 17:50 | 49.41215 | 3.03237 | 40100 ft | 520 kts | 213° |
| 2026-04-29 17:50 | 49.34520 | 2.99022 | 40100 ft | 527 kts | 196° |
| 2026-04-29 17:51 | 49.27239 | 2.97889 | 40099 ft | 527 kts | 181° |
| 2026-04-29 17:51 | 49.19871 | 2.98578 | 40108 ft | 532 kts | 177° |
| 2026-04-29 17:52 | 49.12513 | 2.98622 | 40093 ft | 528 kts | 185° |
| 2026-04-29 17:52 | 49.05147 | 2.98308 | 40093 ft | 530 kts | 181° |
| 2026-04-29 17:53 | 48.97791 | 2.98433 | 40084 ft | 529 kts | 182° |
| 2026-04-29 17:53 | 48.90414 | 2.98204 | 40087 ft | 530 kts | 182° |
| 2026-04-29 17:54 | 48.83047 | 2.98243 | 40085 ft | 530 kts | 182° |
| 2026-04-29 17:54 | 48.75663 | 2.98091 | 40087 ft | 528 kts | 182° |
| 2026-04-29 17:55 | 48.68303 | 2.98068 | 40085 ft | 531 kts | 182° |
| 2026-04-29 17:55 | 48.60933 | 2.97964 | 40084 ft | 527 kts | 182° |
| 2026-04-29 17:56 | 48.53563 | 2.97907 | 40080 ft | 530 kts | 182° |
| 2026-04-29 17:56 | 48.46204 | 2.97827 | 40072 ft | 529 kts | 182° |
| 2026-04-29 17:57 | 48.38832 | 2.97756 | 40070 ft | 529 kts | 182° |
| 2026-04-29 17:57 | 48.31517 | 2.97685 | 40066 ft | 525 kts | 182° |
| 2026-04-29 17:58 | 48.24195 | 2.97611 | 40059 ft | 526 kts | 182° |
| 2026-04-29 17:58 | 48.16885 | 2.97541 | 40050 ft | 523 kts | 183° |
| 2026-04-29 17:59 | 48.09714 | 2.97471 | 40042 ft | 515 kts | 183° |
| 2026-04-29 17:59 | 48.02545 | 2.97401 | 40038 ft | 516 kts | 183° |
| 2026-04-29 18:00 | 47.95292 | 2.97328 | 40030 ft | 521 kts | 183° |
| 2026-04-29 18:00 | 47.88084 | 2.97261 | 40031 ft | 519 kts | 183° |
| 2026-04-29 18:01 | 47.80860 | 2.97191 | 40031 ft | 519 kts | 183° |
| 2026-04-29 18:01 | 47.73651 | 2.97122 | 40031 ft | 511 kts | 183° |
| 2026-04-29 18:02 | 47.66577 | 2.97052 | 40025 ft | 510 kts | 183° |
| 2026-04-29 18:02 | 47.59470 | 2.96986 | 40022 ft | 510 kts | 183° |
| 2026-04-29 18:03 | 47.52416 | 2.96918 | 40016 ft | 508 kts | 183° |
| 2026-04-29 18:03 | 47.45346 | 2.96851 | 40011 ft | 509 kts | 183° |
| 2026-04-29 18:04 | 47.38245 | 2.96784 | 40006 ft | 509 kts | 183° |
| 2026-04-29 18:04 | 47.31195 | 2.96716 | 40002 ft | 507 kts | 183° |
| 2026-04-29 18:05 | 47.24135 | 2.96651 | 40001 ft | 507 kts | 183° |
| 2026-04-29 18:05 | 47.17076 | 2.96584 | 39997 ft | 508 kts | 183° |
| 2026-04-29 18:06 | 47.10015 | 2.96517 | 39986 ft | 507 kts | 183° |
| 2026-04-29 18:06 | 47.02964 | 2.96451 | 39986 ft | 507 kts | 183° |
| 2026-04-29 18:07 | 46.95908 | 2.96385 | 39985 ft | 507 kts | 183° |
| 2026-04-29 18:07 | 46.88866 | 2.96319 | 39986 ft | 506 kts | 183° |
| 2026-04-29 18:08 | 46.81820 | 2.96254 | 39989 ft | 506 kts | 183° |
| 2026-04-29 18:08 | 46.75966 | 2.96199 | 39982 ft | 506 kts | 183° |
| 2026-04-29 18:09 | 46.68875 | 2.96134 | 39975 ft | 506 kts | 183° |
| 2026-04-29 18:09 | 46.61885 | 2.96069 | 39974 ft | 506 kts | 183° |
| 2026-04-29 18:10 | 46.54848 | 2.96004 | 39971 ft | 506 kts | 183° |
| 2026-04-29 18:10 | 46.47812 | 2.95939 | 39970 ft | 505 kts | 183° |
| 2026-04-29 18:11 | 46.40781 | 2.95875 | 39964 ft | 505 kts | 183° |
| 2026-04-29 18:11 | 46.33748 | 2.95811 | 39962 ft | 505 kts | 183° |
| 2026-04-29 18:12 | 46.26719 | 2.95747 | 39955 ft | 505 kts | 182° |
| 2026-04-29 18:12 | 46.19685 | 2.95682 | 39947 ft | 505 kts | 182° |
| 2026-04-29 18:13 | 46.12654 | 2.95619 | 39940 ft | 505 kts | 182° |
| 2026-04-29 18:13 | 46.05627 | 2.95555 | 39951 ft | 505 kts | 182° |
| 2026-04-29 18:14 | 45.98604 | 2.95492 | 39952 ft | 505 kts | 182° |
| 2026-04-29 18:14 | 45.91582 | 2.95428 | 39954 ft | 504 kts | 182° |
| 2026-04-29 18:15 | 45.84579 | 2.95365 | 39955 ft | 503 kts | 182° |
| 2026-04-29 18:15 | 45.77573 | 2.95303 | 39959 ft | 504 kts | 182° |
| 2026-04-29 18:16 | 45.70562 | 2.95210 | 39955 ft | 503 kts | 183° |
| 2026-04-29 18:16 | 45.63565 | 2.94965 | 39962 ft | 503 kts | 183° |
| 2026-04-29 18:17 | 45.56572 | 2.94817 | 39969 ft | 503 kts | 183° |
| 2026-04-29 18:17 | 45.49575 | 2.94609 | 39974 ft | 503 kts | 183° |
| 2026-04-29 18:18 | 45.42572 | 2.94438 | 39974 ft | 503 kts | 183° |
| 2026-04-29 18:18 | 45.35572 | 2.94245 | 39975 ft | 503 kts | 183° |
| 2026-04-29 18:19 | 45.28568 | 2.94066 | 39983 ft | 503 kts | 183° |
| 2026-04-29 18:19 | 45.21564 | 2.93880 | 39989 ft | 503 kts | 183° |
| 2026-04-29 18:20 | 45.14564 | 2.93698 | 39989 ft | 503 kts | 182° |
| 2026-04-29 18:20 | 45.07563 | 2.93515 | 39995 ft | 503 kts | 182° |
| 2026-04-29 18:21 | 45.00606 | 2.93334 | 39996 ft | 503 kts | 182° |
| 2026-04-29 18:21 | 44.93608 | 2.93153 | 39995 ft | 502 kts | 183° |
| 2026-04-29 18:22 | 44.86623 | 2.92972 | 39994 ft | 503 kts | 182° |
| 2026-04-29 18:22 | 44.79647 | 2.92536 | 40002 ft | 502 kts | 185° |
| 2026-04-29 18:23 | 44.72665 | 2.92037 | 40008 ft | 502 kts | 185° |
| 2026-04-29 18:23 | 44.65698 | 2.91522 | 40007 ft | 502 kts | 185° |
| 2026-04-29 18:24 | 44.58726 | 2.91017 | 40004 ft | 502 kts | 185° |
| 2026-04-29 18:24 | 44.51758 | 2.90508 | 40007 ft | 501 kts | 185° |
| 2026-04-29 18:25 | 44.44792 | 2.90004 | 39998 ft | 501 kts | 185° |
| 2026-04-29 18:25 | 44.37833 | 2.89500 | 39998 ft | 501 kts | 184° |
| 2026-04-29 18:26 | 44.30882 | 2.88998 | 40006 ft | 499 kts | 185° |
| 2026-04-29 18:26 | 44.23938 | 2.88497 | 40005 ft | 501 kts | 184° |
| 2026-04-29 18:27 | 44.16995 | 2.87999 | 39999 ft | 500 kts | 184° |
| 2026-04-29 18:27 | 44.10065 | 2.87500 | 40000 ft | 497 kts | 185° |
| 2026-04-29 18:28 | 44.03169 | 2.87009 | 39992 ft | 497 kts | 184° |
| 2026-04-29 18:28 | 43.96257 | 2.86516 | 39998 ft | 497 kts | 185° |
| 2026-04-29 18:29 | 43.89359 | 2.86022 | 39740 ft | 502 kts | 185° |
| 2026-04-29 18:29 | 43.87057 | 2.85858 | 39297 ft | 499 kts | 185° |
| 2026-04-29 18:29 | 43.82449 | 2.85533 | 38371 ft | 492 kts | 185° |
| 2026-04-29 18:29 | 43.79034 | 2.85291 | 37711 ft | 491 kts | 185° |
| 2026-04-29 18:30 | 43.75615 | 2.85222 | 37069 ft | 492 kts | 181° |
| 2026-04-29 18:30 | 43.72181 | 2.85293 | 36425 ft | 497 kts | 180° |
| 2026-04-29 18:30 | 43.68737 | 2.85378 | 35776 ft | 494 kts | 181° |
| 2026-04-29 18:30 | 43.65306 | 2.85422 | 35120 ft | 493 kts | 181° |
| 2026-04-29 18:31 | 43.61866 | 2.85447 | 34463 ft | 495 kts | 181° |
| 2026-04-29 18:31 | 43.58401 | 2.85498 | 33808 ft | 500 kts | 180° |
| 2026-04-29 18:31 | 43.54903 | 2.85566 | 33138 ft | 505 kts | 180° |
| 2026-04-29 18:31 | 43.51382 | 2.85621 | 32467 ft | 506 kts | 180° |
| 2026-04-29 18:32 | 43.47853 | 2.85662 | 31798 ft | 509 kts | 180° |
| 2026-04-29 18:32 | 43.40740 | 2.85768 | 30448 ft | 513 kts | 180° |
| 2026-04-29 18:32 | 43.37209 | 2.85824 | 29741 ft | 515 kts | 180° |
| 2026-04-29 18:33 | 43.33621 | 2.85873 | 29057 ft | 517 kts | 180° |
| 2026-04-29 18:33 | 43.30014 | 2.85922 | 28370 ft | 500 kts | 180° |
| 2026-04-29 18:33 | 43.26547 | 2.85974 | 27717 ft | 497 kts | 180° |
| 2026-04-29 18:33 | 43.23110 | 2.86026 | 27055 ft | 492 kts | 180° |
| 2026-04-29 18:34 | 43.19700 | 2.86075 | 26411 ft | 488 kts | 180° |
| 2026-04-29 18:34 | 43.17458 | 2.86106 | 25988 ft | 487 kts | 180° |
| 2026-04-29 18:34 | 43.13004 | 2.86170 | 25140 ft | 480 kts | 180° |
| 2026-04-29 18:34 | 43.09693 | 2.86219 | 24510 ft | 476 kts | 180° |
| 2026-04-29 18:35 | 43.06385 | 2.86267 | 23872 ft | 472 kts | 180° |
| 2026-04-29 18:35 | 43.03103 | 2.86313 | 23202 ft | 469 kts | 180° |
| 2026-04-29 18:35 | 42.99865 | 2.86360 | 22619 ft | 465 kts | 180° |
| 2026-04-29 18:35 | 42.96659 | 2.86407 | 22000 ft | 459 kts | 180° |
| 2026-04-29 18:36 | 42.93461 | 2.86453 | 21394 ft | 457 kts | 180° |
| 2026-04-29 18:36 | 42.90286 | 2.86497 | 20797 ft | 456 kts | 180° |
| 2026-04-29 18:36 | 42.87140 | 2.86543 | 20213 ft | 448 kts | 180° |
| 2026-04-29 18:36 | 42.84029 | 2.86588 | 19620 ft | 444 kts | 180° |
| 2026-04-29 18:37 | 42.80947 | 2.86632 | 19042 ft | 441 kts | 180° |
| 2026-04-29 18:37 | 42.77890 | 2.86675 | 18463 ft | 438 kts | 180° |
| 2026-04-29 18:37 | 42.74863 | 2.86908 | 17818 ft | 436 kts | 172° |
| 2026-04-29 18:37 | 42.71967 | 2.88023 | 17280 ft | 433 kts | 163° |
| 2026-04-29 18:38 | 42.69104 | 2.89286 | 16716 ft | 430 kts | 163° |
| 2026-04-29 18:38 | 42.66270 | 2.90509 | 16146 ft | 424 kts | 164° |
| 2026-04-29 18:38 | 42.63456 | 2.91702 | 15585 ft | 421 kts | 164° |
| 2026-04-29 18:38 | 42.60668 | 2.92896 | 15022 ft | 420 kts | 164° |
| 2026-04-29 18:39 | 42.57882 | 2.94100 | 14471 ft | 418 kts | 163° |
| 2026-04-29 18:39 | 42.55139 | 2.95281 | 13918 ft | 412 kts | 164° |
| 2026-04-29 18:39 | 42.52390 | 2.96452 | 13342 ft | 412 kts | 164° |
| 2026-04-29 18:39 | 42.49664 | 2.97530 | 12775 ft | 406 kts | 169° |
| 2026-04-29 18:40 | 42.46882 | 2.97674 | 12237 ft | 396 kts | 186° |
| 2026-04-29 18:40 | 42.44223 | 2.96864 | 11737 ft | 379 kts | 197° |
| 2026-04-29 18:40 | 42.41810 | 2.95908 | 11254 ft | 344 kts | 197° |
| 2026-04-29 18:40 | 42.39613 | 2.95047 | 10825 ft | 315 kts | 197° |
| 2026-04-29 18:41 | 42.33782 | 2.92797 | 9661 ft | 280 kts | 196° |
| 2026-04-29 18:41 | 42.31918 | 2.92076 | 9286 ft | 278 kts | 196° |
| 2026-04-29 18:42 | 42.30068 | 2.91361 | 8922 ft | 275 kts | 196° |
| 2026-04-29 18:42 | 42.28238 | 2.90656 | 8562 ft | 273 kts | 196° |
| 2026-04-29 18:42 | 42.26415 | 2.89953 | 8199 ft | 272 kts | 196° |
| 2026-04-29 18:42 | 42.24597 | 2.89251 | 7636 ft | 273 kts | 196° |
| 2026-04-29 18:43 | 42.22783 | 2.88553 | 6948 ft | 269 kts | 195° |
| 2026-04-29 18:43 | 42.20995 | 2.87867 | 6279 ft | 265 kts | 195° |
| 2026-04-29 18:43 | 42.19223 | 2.87187 | 5675 ft | 261 kts | 195° |
| 2026-04-29 18:43 | 42.17525 | 2.86534 | 5321 ft | 247 kts | 195° |
| 2026-04-29 18:44 | 42.15896 | 2.85910 | 5029 ft | 240 kts | 195° |
| 2026-04-29 18:44 | 42.14307 | 2.85302 | 4757 ft | 236 kts | 195° |
| 2026-04-29 18:44 | 42.12752 | 2.84705 | 4474 ft | 235 kts | 195° |
| 2026-04-29 18:44 | 42.11182 | 2.84094 | 4200 ft | 234 kts | 196° |
| 2026-04-29 18:45 | 42.09620 | 2.83473 | 3931 ft | 234 kts | 196° |
| 2026-04-29 18:45 | 42.08067 | 2.82875 | 3663 ft | 230 kts | 195° |
| 2026-04-29 18:45 | 42.06526 | 2.82289 | 3398 ft | 229 kts | 195° |
| 2026-04-29 18:45 | 42.05008 | 2.81711 | 3130 ft | 224 kts | 195° |
| 2026-04-29 18:46 | 42.03543 | 2.81154 | 2918 ft | 209 kts | 195° |
| 2026-04-29 18:46 | 42.02257 | 2.80664 | 2654 ft | 178 kts | 195° |
| 2026-04-29 18:46 | 42.01129 | 2.80235 | 2438 ft | 159 kts | 195° |
| 2026-04-29 18:46 | 42.00113 | 2.79848 | 2237 ft | 146 kts | 195° |
| 2026-04-29 18:47 | 41.99159 | 2.79485 | 2057 ft | 139 kts | 195° |
| 2026-04-29 18:47 | 41.98255 | 2.79142 | 1881 ft | 133 kts | 194° |
| 2026-04-29 18:47 | 41.97382 | 2.78810 | 1710 ft | 129 kts | 194° |
| 2026-04-29 18:47 | 41.96528 | 2.78497 | 1542 ft | 126 kts | 194° |
| 2026-04-29 18:48 | 41.95685 | 2.78187 | 1376 ft | 124 kts | 195° |
| 2026-04-29 18:48 | 41.94859 | 2.77863 | 1217 ft | 124 kts | 196° |
| 2026-04-29 18:48 | 41.94021 | 2.77530 | 1058 ft | 125 kts | 194° |
| 2026-04-29 18:48 | 41.93186 | 2.77218 | 878 ft | 124 kts | 194° |
| 2026-04-29 18:49 | 41.92377 | 2.76909 | 706 ft | 118 kts | 193° |
| 2026-04-29 18:49 | 41.91589 | 2.76617 | 535 ft | 116 kts | 193° |
| 2026-04-29 18:49 | 41.90854 | 2.76346 | 463 ft | 97 kts | 195° |
| 2026-04-29 18:49 | 41.90381 | 2.76164 | 439 ft | 44 kts | 195° |
| 2026-04-29 18:50 | 41.90175 | 2.76086 | 431 ft | 24 kts | 195° |
| 2026-04-29 18:50 | 41.90085 | 2.76132 | 423 ft | 16 kts | 106° |
| 2026-04-29 18:50 | 41.90062 | 2.76256 | 418 ft | 9 kts | 80° |
| 2026-04-29 18:50 | 41.90098 | 2.76288 | 425 ft | 5 kts | 17° |
| 2026-04-29 18:51 | 41.90132 | 2.76300 | 427 ft | 6 kts | 14° |
| 2026-04-29 18:51 | 41.90184 | 2.76320 | 425 ft | 10 kts | 15° |
| 2026-04-29 18:51 | 41.90266 | 2.76351 | 434 ft | 15 kts | 15° |
| 2026-04-29 18:51 | 41.90326 | 2.76402 | 434 ft | 8 kts | 89° |
| 2026-04-29 18:52 | 41.90317 | 2.76477 | 437 ft | 8 kts | 104° |
| 2026-04-29 18:52 | 41.90299 | 2.76488 | 430 ft | 5 kts | 194° |
| 2026-04-29 18:52 | 41.90269 | 2.76477 | 430 ft | 3 kts | 195° |
| 2026-04-29 18:52 | 41.90268 | 2.76477 | 429 ft | 0 kts | 195° |